createdAt,value
2022-08-30T00:02:18.406Z,7.30
2022-08-30T00:04:45.219Z,7.13
2022-08-30T00:07:11.978Z,6.60
2022-08-30T00:09:38.667Z,6.63
2022-08-30T00:12:05.549Z,7.10
2022-08-30T00:14:32.359Z,7.30
2022-08-30T00:16:58.973Z,7.40
2022-08-30T00:19:25.679Z,7.20
2022-08-30T00:21:52.478Z,7.03
2022-08-30T00:24:19.130Z,7.00
2022-08-30T00:26:45.771Z,6.73
2022-08-30T00:29:12.437Z,7.67
2022-08-30T00:31:39.072Z,7.63
2022-08-30T00:34:05.721Z,7.20
2022-08-30T00:36:32.421Z,7.53
2022-08-30T00:38:59.080Z,6.83
2022-08-30T00:41:25.760Z,8.17
2022-08-30T00:43:52.429Z,7.97
2022-08-30T00:46:19.218Z,6.80
2022-08-30T00:48:49.226Z,7.37
2022-08-30T00:51:17.161Z,7.40
2022-08-30T00:53:49.107Z,7.13
2022-08-30T00:56:18.040Z,7.47
2022-08-30T00:58:50.292Z,6.97
2022-08-30T01:01:18.228Z,7.37
2022-08-30T01:03:45.402Z,7.90
2022-08-30T01:06:15.692Z,7.30
2022-08-30T01:08:43.830Z,6.90
2022-08-30T01:11:12.804Z,7.00
2022-08-30T01:13:40.759Z,7.60
2022-08-30T01:16:08.544Z,7.70
2022-08-30T01:18:37.123Z,7.50
2022-08-30T01:21:10.360Z,7.50
2022-08-30T01:23:41.253Z,7.00
2022-08-30T01:26:10.360Z,7.43
2022-08-30T01:28:40.101Z,7.67
2022-08-30T01:31:06.852Z,7.63
2022-08-30T01:33:33.680Z,8.23
2022-08-30T01:36:04.394Z,7.23
2022-08-30T01:38:36.774Z,7.30
2022-08-30T01:41:24.303Z,7.60
2022-08-30T01:43:53.180Z,7.50
2022-08-30T01:46:24.569Z,7.10
2022-08-30T01:48:54.377Z,7.10
2022-08-30T01:51:23.467Z,7.60
2022-08-30T01:53:50.276Z,7.50
2022-08-30T01:56:17.861Z,7.63
2022-08-30T01:58:45.023Z,7.07
2022-08-30T02:01:14.259Z,7.33
2022-08-30T02:03:43.781Z,7.27
2022-08-30T02:06:16.433Z,7.03
2022-08-30T02:08:43.770Z,7.50
2022-08-30T02:11:11.815Z,6.80
2022-08-30T02:13:40.929Z,7.60
2022-08-30T02:16:10.187Z,8.00
2022-08-30T02:18:39.337Z,7.77
2022-08-30T02:21:07.430Z,7.83
2022-08-30T02:23:34.455Z,9.13
2022-08-30T02:26:01.506Z,7.50
2022-08-30T02:28:28.431Z,7.40
2022-08-30T02:30:55.130Z,7.70
2022-08-30T02:33:21.881Z,7.77
2022-08-30T02:35:48.620Z,7.87
2022-08-30T02:38:15.909Z,7.73
2022-08-30T02:40:46.801Z,7.70
2022-08-30T02:43:13.491Z,7.33
2022-08-30T02:45:40.182Z,7.27
2022-08-30T02:48:07.020Z,6.70
2022-08-30T02:50:33.992Z,6.10
2022-08-30T02:53:00.825Z,7.30
2022-08-30T02:55:27.473Z,7.30
2022-08-30T02:57:54.091Z,7.90
2022-08-30T03:00:21.328Z,6.93
2022-08-30T03:02:48.269Z,7.53
2022-08-30T03:05:16.101Z,6.37
2022-08-30T03:07:43.591Z,7.53
2022-08-30T03:10:11.006Z,7.73
2022-08-30T03:12:38.247Z,6.87
2022-08-30T03:15:10.050Z,8.27
2022-08-30T03:17:36.778Z,8.50
2022-08-30T03:20:04.522Z,8.37
2022-08-30T03:22:31.340Z,7.73
2022-08-30T03:24:59.674Z,7.53
2022-08-30T03:27:26.556Z,7.07
2022-08-30T03:29:53.154Z,7.77
2022-08-30T03:32:19.873Z,7.33
2022-08-30T03:34:46.751Z,7.90
2022-08-30T03:37:13.498Z,8.53
2022-08-30T03:39:40.170Z,8.30
2022-08-30T03:42:06.952Z,7.63
2022-08-30T03:44:33.629Z,7.20
2022-08-30T03:47:00.764Z,7.53
2022-08-30T03:49:27.474Z,8.67
2022-08-30T03:51:54.213Z,8.00
2022-08-30T03:54:20.864Z,7.60
2022-08-30T03:56:47.545Z,8.20
2022-08-30T03:59:14.358Z,7.97
2022-08-30T04:01:42.138Z,8.63
2022-08-30T04:04:09.194Z,8.37
2022-08-30T04:06:35.943Z,8.20
2022-08-30T04:09:02.771Z,7.70
2022-08-30T04:11:29.545Z,8.37
2022-08-30T04:13:56.893Z,9.00
2022-08-30T04:16:25.369Z,7.83
2022-08-30T04:18:52.461Z,8.30
2022-08-30T04:21:19.410Z,8.47
2022-08-30T04:23:47.362Z,8.00
2022-08-30T04:26:14.071Z,8.47
2022-08-30T04:28:40.789Z,8.20
2022-08-30T04:31:12.742Z,8.77
2022-08-30T04:33:42.594Z,8.57
2022-08-30T04:36:10.989Z,8.47
2022-08-30T04:38:39.324Z,8.63
2022-08-30T04:41:16.471Z,8.63
2022-08-30T04:43:44.736Z,8.90
2022-08-30T04:46:14.467Z,10.60
2022-08-30T04:48:41.295Z,9.60
2022-08-30T04:51:10.805Z,8.70
2022-08-30T04:53:37.712Z,9.03
2022-08-30T04:56:16.336Z,8.70
2022-08-30T04:58:44.698Z,8.67
2022-08-30T05:01:23.693Z,8.43
2022-08-30T05:03:52.611Z,10.33
2022-08-30T05:06:20.786Z,7.97
2022-08-30T05:08:47.890Z,10.03
2022-08-30T05:11:16.574Z,9.00
2022-08-30T05:13:44.675Z,8.83
2022-08-30T05:16:13.413Z,10.27
2022-08-30T05:18:40.179Z,10.33
2022-08-30T05:21:11.800Z,10.53
2022-08-30T05:23:39.649Z,11.37
2022-08-30T05:26:15.517Z,9.73
2022-08-30T05:28:42.364Z,9.67
2022-08-30T05:31:19.243Z,10.13
2022-08-30T05:33:47.106Z,10.23
2022-08-30T05:36:15.780Z,10.23
2022-08-30T05:38:42.889Z,10.53
2022-08-30T05:41:11.192Z,11.03
2022-08-30T05:43:39.034Z,11.90
2022-08-30T05:46:11.773Z,11.07
2022-08-30T05:48:40.064Z,11.27
2022-08-30T05:51:11.491Z,11.40
2022-08-30T05:53:39.602Z,11.83
2022-08-30T05:56:09.644Z,11.50
2022-08-30T05:58:37.066Z,12.30
2022-08-30T06:01:04.319Z,12.10
2022-08-30T06:03:32.963Z,11.30
2022-08-30T06:06:00.901Z,11.20
2022-08-30T06:08:27.592Z,12.00
2022-08-30T06:10:54.275Z,11.83
2022-08-30T06:13:20.994Z,12.00
2022-08-30T06:15:47.895Z,11.73
2022-08-30T06:18:14.780Z,10.83
2022-08-30T06:20:50.216Z,11.63
2022-08-30T06:23:18.004Z,11.40
2022-08-30T06:25:45.196Z,10.37
2022-08-30T06:28:12.637Z,11.30
2022-08-30T06:30:41.469Z,11.03
2022-08-30T06:33:08.247Z,10.70
2022-08-30T06:35:42.174Z,11.50
2022-08-30T06:38:13.733Z,10.83
2022-08-30T06:40:40.526Z,11.20
2022-08-30T06:43:07.381Z,12.27
2022-08-30T06:45:35.287Z,12.17
2022-08-30T06:48:02.202Z,11.77
2022-08-30T06:50:28.871Z,14.50
2022-08-30T06:52:55.778Z,12.27
2022-08-30T06:55:23.874Z,15.33
2022-08-30T06:57:50.676Z,14.47
2022-08-30T07:00:17.781Z,13.57
2022-08-30T07:02:44.699Z,15.33
2022-08-30T07:05:15.411Z,15.13
2022-08-30T07:07:44.887Z,15.00
2022-08-30T07:10:11.812Z,15.80
2022-08-30T07:12:38.519Z,16.00
2022-08-30T07:15:06.077Z,14.33
2022-08-30T07:17:53.483Z,15.40
2022-08-30T07:20:21.599Z,15.27
2022-08-30T07:22:49.397Z,16.33
2022-08-30T07:25:16.416Z,13.90
2022-08-30T07:27:46.599Z,14.30
2022-08-30T07:30:14.103Z,14.93
2022-08-30T07:32:41.160Z,14.80
2022-08-30T07:35:08.172Z,14.47
2022-08-30T07:37:34.978Z,14.97
2022-08-30T07:40:02.377Z,13.60
2022-08-30T07:42:29.182Z,12.37
2022-08-30T07:44:56.949Z,12.77
2022-08-30T07:47:23.754Z,13.97
2022-08-30T07:49:50.445Z,11.97
2022-08-30T07:52:17.240Z,12.50
2022-08-30T07:54:44.017Z,11.97
2022-08-30T07:57:12.041Z,11.23
2022-08-30T07:59:43.067Z,12.20
2022-08-30T08:02:09.797Z,11.27
2022-08-30T08:04:36.563Z,12.17
2022-08-30T08:07:06.043Z,12.20
2022-08-30T08:09:34.125Z,11.80
2022-08-30T08:12:00.831Z,10.50
2022-08-30T08:14:28.467Z,11.93
2022-08-30T08:16:55.132Z,10.47
2022-08-30T08:19:21.980Z,11.33
2022-08-30T08:21:59.369Z,10.53
2022-08-30T08:24:36.330Z,10.03
2022-08-30T08:27:03.036Z,9.90
2022-08-30T08:29:30.121Z,10.90
2022-08-30T08:31:57.985Z,10.70
2022-08-30T08:34:24.842Z,10.60
2022-08-30T08:36:51.773Z,10.33
2022-08-30T08:39:18.794Z,10.03
2022-08-30T08:42:16.635Z,10.30
2022-08-30T08:44:51.608Z,10.67
2022-08-30T08:47:45.076Z,10.33
2022-08-30T08:50:18.630Z,10.30
2022-08-30T08:53:45.955Z,10.77
2022-08-30T08:56:15.644Z,11.00
2022-08-30T08:58:51.687Z,11.33
2022-08-30T09:01:22.253Z,11.00
2022-08-30T09:03:50.225Z,11.57
2022-08-30T09:06:39.693Z,11.33
2022-08-30T09:09:13.413Z,12.60
2022-08-30T09:11:44.290Z,12.47
2022-08-30T09:14:19.323Z,10.57
2022-08-30T09:16:50.319Z,11.47
2022-08-30T09:19:40.055Z,12.60
2022-08-30T09:22:31.716Z,12.00
2022-08-30T09:25:06.698Z,12.73
2022-08-30T09:27:45.448Z,13.27
2022-08-30T09:30:23.521Z,13.43
2022-08-30T09:32:54.277Z,14.93
2022-08-30T09:35:52.115Z,15.73
2022-08-30T09:38:32.776Z,15.03
2022-08-30T09:41:02.547Z,15.90
2022-08-30T09:43:34.258Z,18.60
2022-08-30T09:46:01.422Z,20.53
2022-08-30T09:48:45.919Z,18.13
2022-08-30T09:51:15.350Z,17.80
2022-08-30T09:54:07.117Z,17.13
2022-08-30T09:56:40.528Z,16.20
2022-08-30T09:59:22.142Z,17.53
2022-08-30T10:01:59.226Z,15.80
2022-08-30T10:05:31.117Z,16.97
2022-08-30T10:08:18.011Z,17.00
2022-08-30T10:10:47.446Z,15.23
2022-08-30T10:13:33.738Z,16.57
2022-08-30T10:16:17.251Z,17.13
2022-08-30T10:19:04.255Z,15.77
2022-08-30T10:21:41.553Z,15.43
2022-08-30T10:24:20.798Z,15.43
2022-08-30T10:26:57.585Z,15.33
2022-08-30T10:29:31.536Z,14.93
2022-08-30T10:32:03.269Z,15.60
2022-08-30T10:34:41.865Z,14.33
2022-08-30T10:37:17.463Z,15.30
2022-08-30T10:39:52.064Z,16.17
2022-08-30T10:42:27.993Z,16.17
2022-08-30T10:45:08.454Z,14.87
2022-08-30T10:47:50.364Z,15.37
2022-08-30T10:50:21.631Z,14.47
2022-08-30T10:53:02.242Z,14.93
2022-08-30T10:55:35.581Z,14.67
2022-08-30T10:58:05.534Z,14.20
2022-08-30T11:00:45.264Z,13.80
2022-08-30T11:03:46.024Z,15.30
2022-08-30T11:06:25.211Z,14.73
2022-08-30T11:09:10.344Z,14.90
2022-08-30T11:11:45.547Z,16.80
2022-08-30T11:14:17.130Z,14.30
2022-08-30T11:16:48.488Z,15.13
2022-08-30T11:19:24.638Z,14.27
2022-08-30T11:21:53.681Z,14.57
2022-08-30T11:24:25.537Z,15.47
2022-08-30T11:26:57.758Z,14.07
2022-08-30T11:29:30.917Z,14.73
2022-08-30T11:32:20.146Z,13.90
2022-08-30T11:34:46.732Z,13.47
2022-08-30T11:37:54.583Z,13.10
2022-08-30T11:40:24.477Z,13.53
2022-08-30T11:42:54.499Z,14.00
2022-08-30T11:45:25.254Z,13.67
2022-08-30T11:47:59.653Z,13.87
2022-08-30T11:50:48.563Z,13.67
2022-08-30T11:53:37.327Z,13.73
2022-08-30T11:56:16.742Z,12.53
2022-08-30T11:58:57.359Z,12.77
2022-08-30T12:01:50.603Z,12.03
2022-08-30T12:04:26.321Z,11.53
2022-08-30T12:07:05.579Z,11.77
2022-08-30T12:09:35.200Z,11.77
2022-08-30T12:12:06.393Z,11.03
2022-08-30T12:14:41.057Z,11.23
2022-08-30T12:17:41.100Z,11.60
2022-08-30T12:20:24.953Z,11.37
2022-08-30T12:22:53.439Z,11.20
2022-08-30T12:25:34.144Z,11.43
2022-08-30T12:28:24.162Z,10.80
2022-08-30T12:30:51.822Z,11.07
2022-08-30T12:33:41.733Z,10.57
2022-08-30T12:36:14.228Z,9.60
2022-08-30T12:38:41.644Z,8.93
2022-08-30T12:41:08.672Z,8.97
2022-08-30T12:43:47.344Z,10.10
2022-08-30T12:46:19.164Z,9.20
2022-08-30T12:48:48.198Z,9.33
2022-08-30T12:51:38.255Z,9.73
2022-08-30T12:54:21.257Z,8.93
2022-08-30T12:56:50.482Z,9.40
2022-08-30T12:59:40.591Z,8.77
2022-08-30T13:02:20.529Z,9.10
2022-08-30T13:05:47.752Z,9.63
2022-08-30T13:08:25.279Z,9.27
2022-08-30T13:11:24.936Z,8.80
2022-08-30T13:14:30.010Z,9.90
2022-08-30T13:17:26.191Z,9.27
2022-08-30T13:20:01.053Z,9.57
2022-08-30T13:22:38.331Z,9.70
2022-08-30T13:25:06.432Z,10.23
2022-08-30T13:27:36.906Z,9.60
2022-08-30T13:30:13.477Z,10.10
2022-08-30T13:32:40.871Z,10.10
2022-08-30T13:35:08.557Z,11.03
2022-08-30T13:37:51.932Z,9.80
2022-08-30T13:40:21.308Z,10.40
2022-08-30T13:42:48.627Z,10.13
2022-08-30T13:48:04.182Z,10.43
2022-08-30T13:50:30.939Z,10.30
2022-08-30T13:52:57.981Z,10.03
2022-08-30T13:55:24.733Z,9.67
2022-08-30T13:57:55.529Z,9.70
2022-08-30T14:00:25.004Z,9.37
2022-08-30T14:02:57.583Z,10.77
2022-08-30T14:05:49.560Z,10.90
2022-08-30T14:11:18.590Z,9.87
2022-08-30T14:16:35.479Z,10.73
2022-08-30T14:19:02.485Z,12.27
2022-08-30T14:21:29.400Z,12.07
2022-08-30T14:23:58.838Z,10.33
2022-08-30T14:26:34.304Z,10.03
2022-08-30T14:29:03.647Z,10.00
2022-08-30T14:31:32.931Z,10.17
2022-08-30T14:34:04.131Z,10.17
2022-08-30T14:36:33.131Z,9.70
2022-08-30T14:39:01.073Z,9.87
2022-08-30T14:41:27.794Z,10.07
2022-08-30T14:43:54.528Z,9.77
2022-08-30T14:46:22.143Z,9.87
2022-08-30T14:48:50.347Z,10.90
2022-08-30T14:51:19.719Z,10.73
2022-08-30T14:53:47.533Z,9.87
2022-08-30T14:56:19.441Z,10.27
2022-08-30T14:58:52.148Z,10.00
2022-08-30T15:01:20.157Z,10.07
2022-08-30T15:03:47.063Z,10.60
2022-08-30T15:06:14.044Z,10.73
2022-08-30T15:08:41.219Z,10.20
2022-08-30T15:11:14.438Z,9.43
2022-08-30T15:13:44.369Z,10.30
2022-08-30T15:16:33.840Z,10.17
2022-08-30T15:19:02.319Z,10.60
2022-08-30T15:21:32.978Z,10.43
2022-08-30T15:24:02.261Z,10.20
2022-08-30T15:26:29.383Z,9.70
2022-08-30T15:28:56.919Z,10.37
2022-08-30T15:31:28.193Z,11.23
2022-08-30T15:33:55.481Z,10.40
2022-08-30T15:36:24.075Z,9.57
2022-08-30T15:38:55.381Z,9.67
2022-08-30T15:41:22.936Z,10.07
2022-08-30T15:43:50.411Z,8.50
2022-08-30T15:46:22.665Z,9.33
2022-08-30T15:48:51.970Z,9.53
2022-08-30T15:51:19.257Z,9.67
2022-08-30T15:53:46.586Z,9.60
2022-08-30T15:56:13.808Z,9.93
2022-08-30T15:58:41.567Z,9.43
2022-08-30T16:01:09.263Z,9.13
2022-08-30T16:03:37.779Z,9.73
2022-08-30T16:06:04.839Z,9.50
2022-08-30T16:08:31.471Z,10.37
2022-08-30T16:10:58.185Z,10.60
2022-08-30T16:13:24.817Z,10.60
2022-08-30T16:15:51.530Z,9.93
2022-08-30T16:18:18.251Z,9.77
2022-08-30T16:20:45.032Z,10.60
2022-08-30T16:23:11.900Z,9.73
2022-08-30T16:25:40.815Z,9.67
2022-08-30T16:28:09.502Z,10.50
2022-08-30T16:30:36.684Z,9.90
2022-08-30T16:33:03.488Z,10.13
2022-08-30T16:35:30.156Z,9.37
2022-08-30T16:37:56.788Z,10.43
2022-08-30T16:40:23.620Z,10.07
2022-08-30T16:42:50.783Z,10.37
2022-08-30T16:45:17.958Z,10.93
2022-08-30T16:47:46.004Z,9.77
2022-08-30T16:50:13.090Z,9.97
2022-08-30T16:52:44.018Z,11.63
2022-08-30T16:55:10.963Z,9.60
2022-08-30T16:57:38.776Z,11.83
2022-08-30T17:00:13.363Z,12.03
2022-08-30T17:02:41.020Z,11.30
2022-08-30T17:05:14.763Z,11.90
2022-08-30T17:07:42.058Z,11.37
2022-08-30T17:10:09.041Z,11.00
2022-08-30T17:12:35.794Z,10.57
2022-08-30T17:15:05.596Z,11.77
2022-08-30T17:17:32.862Z,11.00
2022-08-30T17:19:59.520Z,11.70
2022-08-30T17:22:26.280Z,12.27
2022-08-30T17:24:53.447Z,10.90
2022-08-30T17:27:20.185Z,10.77
2022-08-30T17:29:47.871Z,12.00
2022-08-30T17:32:14.750Z,11.57
2022-08-30T17:34:41.417Z,12.40
2022-08-30T17:37:08.638Z,11.27
2022-08-30T17:39:36.499Z,12.03
2022-08-30T17:42:03.766Z,11.47
2022-08-30T17:44:33.945Z,12.17
2022-08-30T17:47:00.811Z,11.87
2022-08-30T17:49:29.038Z,11.30
2022-08-30T17:51:57.149Z,12.30
2022-08-30T17:54:26.741Z,12.37
2022-08-30T17:56:54.426Z,12.00
2022-08-30T17:59:25.026Z,12.60
2022-08-30T18:01:52.985Z,12.30
2022-08-30T18:04:20.477Z,12.57
2022-08-30T18:06:48.106Z,11.53
2022-08-30T18:09:16.054Z,12.33
2022-08-30T18:11:42.842Z,12.27
2022-08-30T18:14:11.365Z,12.33
2022-08-30T18:16:43.884Z,11.63
2022-08-30T18:19:19.105Z,11.07
2022-08-30T18:21:45.750Z,11.87
2022-08-30T18:24:12.632Z,11.37
2022-08-30T18:26:43.150Z,11.67
2022-08-30T18:29:11.058Z,11.97
2022-08-30T18:31:38.317Z,11.37
2022-08-30T18:34:06.161Z,12.30
2022-08-30T18:36:33.982Z,11.63
2022-08-30T18:39:00.845Z,10.93
2022-08-30T18:41:27.735Z,12.27
2022-08-30T18:44:17.155Z,10.33
2022-08-30T18:47:31.858Z,11.20
2022-08-30T18:49:32.545Z,10.87
2022-08-30T18:52:00.228Z,11.33
2022-08-30T18:54:28.089Z,10.67
2022-08-30T18:56:54.890Z,11.00
2022-08-30T18:59:21.640Z,12.07
2022-08-30T19:01:49.763Z,12.50
2022-08-30T19:04:22.304Z,11.17
2022-08-30T19:06:57.127Z,11.70
2022-08-30T19:09:24.326Z,11.63
2022-08-30T19:11:53.434Z,11.57
2022-08-30T19:14:20.138Z,11.53
2022-08-30T19:16:47.941Z,11.83
2022-08-30T19:19:14.722Z,11.47
2022-08-30T19:21:42.021Z,10.83
2022-08-30T19:24:09.316Z,11.77
2022-08-30T19:26:37.369Z,11.23
2022-08-30T19:29:05.984Z,11.47
2022-08-30T19:31:33.472Z,11.90
2022-08-30T19:34:00.809Z,10.87
2022-08-30T19:36:28.988Z,10.40
2022-08-30T19:38:56.049Z,11.23
2022-08-30T19:41:22.870Z,11.23
2022-08-30T19:43:51.582Z,10.37
2022-08-30T19:46:18.534Z,9.83
2022-08-30T19:48:45.333Z,10.30
2022-08-30T19:51:14.267Z,8.73
2022-08-30T19:53:42.087Z,9.90
2022-08-30T19:56:08.824Z,9.50
2022-08-30T19:58:35.604Z,9.80
2022-08-30T20:01:10.838Z,9.57
2022-08-30T20:03:39.839Z,9.57
2022-08-30T20:06:07.882Z,9.37
2022-08-30T20:08:35.793Z,10.50
2022-08-30T20:11:03.460Z,10.20
2022-08-30T20:13:30.073Z,10.93
2022-08-30T20:16:01.260Z,10.37
2022-08-30T20:18:28.894Z,11.07
2022-08-30T20:20:56.369Z,9.27
2022-08-30T20:23:25.477Z,8.73
2022-08-30T20:25:54.519Z,9.77
2022-08-30T20:28:22.341Z,8.77
2022-08-30T20:30:49.676Z,8.57
2022-08-30T20:33:16.941Z,9.20
2022-08-30T20:35:48.765Z,9.27
2022-08-30T20:38:21.335Z,9.27
2022-08-30T20:40:53.970Z,9.27
2022-08-30T20:43:22.968Z,8.50
2022-08-30T20:45:50.262Z,8.57
2022-08-30T20:48:17.712Z,8.43
2022-08-30T20:50:44.734Z,8.83
2022-08-30T20:53:12.251Z,8.63
2022-08-30T20:55:47.420Z,8.90
2022-08-30T20:58:15.210Z,9.73
2022-08-30T21:00:45.973Z,8.97
2022-08-30T21:03:27.375Z,9.03
2022-08-30T21:05:55.842Z,10.20
2022-08-30T21:08:22.708Z,8.63
2022-08-30T21:10:49.771Z,9.00
2022-08-30T21:13:17.309Z,8.93
2022-08-30T21:15:46.154Z,9.23
2022-08-30T21:18:13.869Z,9.17
2022-08-30T21:20:40.614Z,9.53
2022-08-30T21:23:07.380Z,9.90
2022-08-30T21:25:34.281Z,9.70
2022-08-30T21:28:01.354Z,9.60
2022-08-30T21:30:28.121Z,9.07
2022-08-30T21:32:55.184Z,9.97
2022-08-30T21:35:45.271Z,9.63
2022-08-30T21:38:11.947Z,9.00
2022-08-30T21:40:38.638Z,8.60
2022-08-30T21:43:07.532Z,8.60
2022-08-30T21:45:38.456Z,9.37
2022-08-30T21:48:05.762Z,8.83
2022-08-30T21:50:32.579Z,9.50
2022-08-30T21:52:59.411Z,8.63
2022-08-30T21:55:26.220Z,8.47
2022-08-30T21:57:54.718Z,8.33
2022-08-30T22:00:22.146Z,7.93
2022-08-30T22:02:52.453Z,7.90
2022-08-30T22:05:20.264Z,7.90
2022-08-30T22:07:46.963Z,8.50
2022-08-30T22:10:15.323Z,8.43
2022-08-30T22:12:41.936Z,7.80
2022-08-30T22:15:09.112Z,9.50
2022-08-30T22:17:35.734Z,7.73
2022-08-30T22:20:02.651Z,6.90
2022-08-30T22:22:29.343Z,8.07
2022-08-30T22:24:56.054Z,8.10
2022-08-30T22:27:22.703Z,8.23
2022-08-30T22:29:49.332Z,8.23
2022-08-30T22:32:16.084Z,7.47
2022-08-30T22:34:45.504Z,8.57
2022-08-30T22:37:12.180Z,8.20
2022-08-30T22:39:38.860Z,8.40
2022-08-30T22:42:05.834Z,8.10
2022-08-30T22:44:32.490Z,8.93
2022-08-30T22:47:00.785Z,9.23
2022-08-30T22:49:27.604Z,8.17
2022-08-30T22:51:54.456Z,8.10
2022-08-30T22:54:21.094Z,8.60
2022-08-30T22:56:47.814Z,8.10
2022-08-30T22:59:15.139Z,7.83
2022-08-30T23:01:43.328Z,8.40
2022-08-30T23:04:11.318Z,8.17
2022-08-30T23:06:38.058Z,8.70
2022-08-30T23:09:06.600Z,8.40
2022-08-30T23:11:34.051Z,8.20
2022-08-30T23:14:02.396Z,8.10
2022-08-30T23:16:29.244Z,8.67
2022-08-30T23:18:56.235Z,9.00
2022-08-30T23:21:27.190Z,8.13
2022-08-30T23:24:14.587Z,7.87
2022-08-30T23:27:01.758Z,7.43
2022-08-30T23:29:49.309Z,8.13
2022-08-30T23:32:34.981Z,8.23
2022-08-30T23:35:20.580Z,7.53
2022-08-30T23:38:12.108Z,8.17
2022-08-30T23:40:57.641Z,7.03
2022-08-30T23:43:42.922Z,7.90
2022-08-30T23:46:28.460Z,7.53
2022-08-30T23:49:14.108Z,7.53
2022-08-30T23:51:59.214Z,7.93
2022-08-30T23:54:44.725Z,7.53
2022-08-30T23:57:29.856Z,8.13
